createdAt,value
2018-01-17T00:02:44.943Z,1.25
2018-01-17T00:08:48.374Z,1.34
2018-01-17T00:14:51.829Z,1.47
2018-01-17T00:20:55.276Z,1.62
2018-01-17T00:26:59.123Z,1.85
2018-01-17T00:33:02.596Z,1.95
2018-01-17T00:39:06.017Z,2.15
2018-01-17T00:45:10.274Z,1.95
2018-01-17T00:51:14.479Z,1.71
2018-01-17T00:57:18.074Z,1.74
2018-01-17T01:03:21.627Z,1.67
2018-01-17T01:09:25.493Z,1.73
2018-01-17T01:15:28.975Z,1.76
2018-01-17T01:21:33.203Z,1.76
2018-01-17T01:27:36.649Z,1.90
2018-01-17T01:33:40.188Z,1.87
2018-01-17T01:39:43.660Z,1.79
2018-01-17T01:45:47.171Z,1.72
2018-01-17T01:51:51.404Z,1.65
2018-01-17T01:57:56.017Z,1.60
2018-01-17T02:03:59.569Z,1.57
2018-01-17T02:10:03.798Z,1.59
2018-01-17T02:16:07.258Z,1.54
2018-01-17T02:22:10.693Z,1.55
2018-01-17T02:28:14.153Z,1.58
2018-01-17T02:34:17.676Z,1.46
2018-01-17T02:40:39.747Z,1.51
2018-01-17T02:46:43.322Z,1.53
2018-01-17T02:52:46.758Z,1.61
2018-01-17T02:58:51.100Z,1.53
2018-01-17T03:04:54.835Z,1.53
2018-01-17T03:10:59.118Z,1.67
2018-01-17T03:17:02.667Z,1.85
2018-01-17T03:23:06.228Z,1.94
2018-01-17T03:29:09.668Z,2.03
2018-01-17T03:35:13.228Z,2.13
2018-01-17T03:41:16.934Z,2.21
2018-01-17T03:47:21.207Z,2.34
2018-01-17T03:53:25.538Z,2.38
2018-01-17T03:59:29.029Z,2.35
2018-01-17T04:05:32.478Z,2.40
2018-01-17T04:11:36.038Z,2.46
2018-01-17T04:17:39.492Z,2.13
2018-01-17T04:23:42.938Z,1.94
2018-01-17T04:29:46.447Z,1.80
2018-01-17T04:35:49.890Z,1.72
2018-01-17T04:41:54.002Z,1.42
2018-01-17T04:47:59.072Z,0.94
2018-01-17T04:54:02.528Z,0.69
2018-01-17T05:00:06.187Z,0.68
2018-01-17T05:06:09.823Z,0.68
2018-01-17T05:12:13.303Z,0.66
2018-01-17T05:18:16.795Z,0.65
2018-01-17T05:24:21.012Z,0.66
2018-01-17T05:30:25.528Z,0.72
2018-01-17T05:36:28.957Z,0.71
2018-01-17T05:42:32.425Z,0.79
2018-01-17T05:48:35.862Z,0.86
2018-01-17T05:54:39.389Z,0.91
2018-01-17T06:00:42.887Z,0.88
2018-01-17T06:06:46.356Z,0.90
2018-01-17T06:12:50.576Z,0.87
2018-01-17T06:18:54.131Z,0.93
2018-01-17T06:24:57.999Z,0.91
2018-01-17T06:31:01.499Z,0.92
2018-01-17T06:37:05.729Z,0.96
2018-01-17T06:43:09.379Z,0.97
2018-01-17T06:49:12.854Z,0.95
2018-01-17T06:55:16.307Z,0.99
2018-01-17T07:01:19.801Z,0.99
2018-01-17T07:07:23.303Z,0.99
2018-01-17T07:13:27.226Z,0.99
2018-01-17T07:19:30.696Z,0.99
2018-01-17T07:25:34.178Z,1.01
2018-01-17T07:31:37.655Z,1.06
2018-01-17T07:37:41.906Z,1.05
2018-01-17T07:43:45.379Z,1.10
2018-01-17T07:49:48.825Z,1.12
2018-01-17T07:55:52.277Z,1.10
2018-01-17T08:01:55.875Z,1.14
2018-01-17T08:07:59.385Z,1.19
2018-01-17T08:14:02.900Z,1.22
2018-01-17T08:20:06.381Z,1.25
2018-01-17T08:26:09.858Z,1.35
2018-01-17T08:32:14.796Z,1.36
2018-01-17T08:38:18.234Z,1.45
2018-01-17T08:44:21.663Z,1.45
2018-01-17T08:50:26.272Z,1.50
2018-01-17T08:56:30.155Z,1.58
2018-01-17T09:02:33.601Z,1.57
2018-01-17T09:08:37.083Z,1.58
2018-01-17T09:14:40.803Z,1.58
2018-01-17T09:20:44.261Z,1.70
2018-01-17T09:26:47.872Z,1.68
2018-01-17T09:32:51.335Z,1.68
2018-01-17T09:38:55.809Z,1.74
2018-01-17T09:44:59.644Z,1.72
2018-01-17T09:51:03.129Z,1.68
2018-01-17T09:57:07.379Z,1.66
2018-01-17T10:03:11.679Z,1.69
2018-01-17T10:09:15.896Z,1.75
2018-01-17T10:15:19.434Z,1.78
2018-01-17T10:21:22.900Z,1.84
2018-01-17T10:27:26.639Z,1.86
2018-01-17T10:33:30.098Z,1.88
2018-01-17T10:39:33.948Z,1.83
2018-01-17T10:45:38.131Z,1.60
2018-01-17T10:51:41.587Z,1.03
2018-01-17T10:57:45.045Z,0.84
2018-01-17T11:03:48.506Z,0.81
2018-01-17T11:09:52.076Z,0.91
2018-01-17T11:15:56.966Z,1.04
2018-01-17T11:22:01.648Z,1.21
2018-01-17T11:28:05.104Z,1.38
2018-01-17T11:34:08.629Z,1.53
2018-01-17T11:40:12.084Z,1.73
2018-01-17T11:46:15.542Z,1.82
2018-01-17T11:52:18.975Z,1.92
2018-01-17T11:58:22.434Z,1.84
2018-01-17T12:04:26.100Z,1.80
2018-01-17T12:10:29.553Z,1.78
2018-01-17T12:16:33.013Z,1.76
2018-01-17T12:22:36.461Z,1.80
2018-01-17T12:28:39.926Z,1.95
2018-01-17T12:34:43.424Z,2.05
2018-01-17T12:40:47.639Z,2.08
2018-01-17T12:46:51.114Z,2.00
2018-01-17T12:52:54.618Z,1.98
2018-01-17T12:58:59.161Z,2.03
2018-01-17T13:05:02.612Z,2.16
2018-01-17T13:11:06.048Z,2.12
2018-01-17T13:17:09.534Z,2.09
2018-01-17T13:23:13.758Z,2.09
2018-01-17T13:29:17.238Z,2.20
2018-01-17T13:35:20.643Z,2.29
2018-01-17T13:41:24.116Z,2.33
2018-01-17T13:47:27.635Z,2.30
2018-01-17T13:53:31.282Z,2.29
2018-01-17T13:59:35.579Z,2.25
2018-01-17T14:05:39.203Z,2.10
2018-01-17T14:11:43.553Z,1.93
2018-01-17T14:17:47.098Z,1.98
2018-01-17T14:23:50.608Z,2.10
2018-01-17T14:29:54.934Z,2.10
2018-01-17T14:35:58.998Z,1.98
2018-01-17T14:42:02.625Z,1.70
2018-01-17T14:48:06.088Z,1.66
2018-01-17T14:54:09.544Z,1.60
2018-01-17T15:00:16.403Z,1.54
2018-01-17T15:06:19.850Z,1.40
2018-01-17T15:12:23.308Z,1.09
2018-01-17T15:18:28.170Z,0.92
2018-01-17T15:24:31.768Z,0.88
2018-01-17T15:30:35.279Z,0.87
2018-01-17T15:36:39.502Z,0.82
2018-01-17T15:42:43.709Z,0.75
2018-01-17T15:48:47.157Z,0.73
2018-01-17T15:54:50.590Z,0.75
2018-01-17T16:00:54.071Z,0.87
2018-01-17T16:06:58.234Z,0.88
2018-01-17T16:13:01.825Z,0.89
2018-01-17T16:19:05.264Z,0.91
2018-01-17T16:25:08.698Z,0.93
2018-01-17T16:31:12.155Z,1.01
2018-01-17T16:37:15.627Z,1.05
2018-01-17T16:43:19.163Z,1.13
2018-01-17T16:49:22.799Z,1.12
2018-01-17T16:55:26.915Z,1.04
2018-01-17T17:01:30.380Z,0.92
2018-01-17T17:07:33.832Z,0.81
2018-01-17T17:13:37.298Z,0.69
2018-01-17T17:19:41.095Z,0.64
2018-01-17T17:25:44.517Z,0.67
2018-01-17T17:31:48.757Z,0.69
2018-01-17T17:37:52.173Z,0.66
2018-01-17T17:43:55.662Z,0.65
2018-01-17T17:49:59.335Z,0.65
2018-01-17T17:56:02.796Z,0.65
2018-01-17T18:02:06.262Z,0.68
2018-01-17T18:08:09.714Z,0.74
2018-01-17T18:14:14.210Z,0.77
2018-01-17T18:20:17.714Z,0.83
2018-01-17T18:26:21.285Z,0.93
2018-01-17T18:32:25.479Z,1.05
2018-01-17T18:38:29.080Z,1.13
2018-01-17T18:44:32.610Z,1.19
2018-01-17T18:50:36.047Z,1.21
2018-01-17T18:56:40.258Z,1.23
2018-01-17T19:02:43.747Z,1.33
2018-01-17T19:08:47.191Z,1.37
2018-01-17T19:14:51.490Z,1.41
2018-01-17T19:20:55.962Z,1.44
2018-01-17T19:27:00.262Z,1.44
2018-01-17T19:33:03.703Z,1.38
2018-01-17T19:39:07.168Z,1.40
2018-01-17T19:45:10.659Z,1.35
2018-01-17T19:51:14.128Z,1.33
2018-01-17T19:57:17.596Z,1.40
2018-01-17T20:03:22.209Z,1.56
2018-01-17T20:09:26.036Z,1.52
2018-01-17T20:15:29.600Z,1.66
2018-01-17T20:21:33.857Z,1.71
2018-01-17T20:27:37.322Z,1.57
2018-01-17T20:33:41.006Z,1.33
2018-01-17T20:39:44.518Z,1.30
2018-01-17T20:45:48.062Z,1.33
2018-01-17T20:51:51.593Z,1.38
2018-01-17T20:57:55.495Z,1.44
2018-01-17T21:03:59.724Z,1.54
2018-01-17T21:10:03.242Z,1.61
2018-01-17T21:16:07.459Z,1.66
2018-01-17T21:22:10.904Z,1.69
2018-01-17T21:28:14.337Z,1.53
2018-01-17T21:34:17.778Z,1.39
2018-01-17T21:40:21.208Z,1.34
2018-01-17T21:46:24.843Z,1.36
2018-01-17T21:52:28.536Z,1.44
2018-01-17T21:58:32.759Z,1.46
2018-01-17T22:04:36.218Z,1.56
2018-01-17T22:10:39.694Z,1.61
2018-01-17T22:16:43.265Z,2.50
2018-01-17T22:22:47.465Z,1.93
2018-01-17T22:28:50.872Z,1.95
2018-01-17T22:34:54.512Z,1.87
2018-01-17T22:40:58.609Z,1.82
2018-01-17T22:47:02.830Z,1.86
2018-01-17T22:53:06.278Z,1.95
2018-01-17T22:59:09.741Z,1.97
2018-01-17T23:05:13.186Z,2.02
2018-01-17T23:11:16.644Z,2.15
2018-01-17T23:17:20.189Z,2.08
2018-01-17T23:23:23.878Z,2.02
2018-01-17T23:29:27.381Z,2.02
2018-01-17T23:35:30.929Z,1.99
2018-01-17T23:41:34.369Z,1.95
2018-01-17T23:47:38.574Z,1.96
2018-01-17T23:53:42.080Z,2.03
2018-01-17T23:59:45.550Z,1.94
